• Join FlightAware (Why Join?)
  • Login
  • US Flag 
08:33PM EDT


 

Airport Tracker/Info


-or-


 

Live Flight TrackerFlight Track Log ✈ AFL150 ✈ 19-Oct-2013 ✈ UUEE / SVO - MUHA / HAV

Flight Track Log - Related Links

Times and Time Zones

All times are in EDT time to prevent confusion due to time zone crossing. See the AFL150 flight status page for this flight to view local times or setup timezone preferences in your user account.

Time Position Orientation Groundspeed Altitude Reporting Facility
EDT Latitude Longitude Course Direction KTS MPH feet Rate Location/Type
07:12PM 22.9891 -82.4091 236° Southwest  Level Estimated
07:13PM 22.9891 -82.4091 236° Southwest  Level Estimated
07:14PM 22.9891 -82.4091 236° Southwest  Level Estimated
07:14PM 23.4150 -81.4270 236° Southwest 304 350 11,900  Level FlightAware
07:15PM 23.3870 -81.5000 247° West 297 342 10,800 -840 Descending FlightAware
07:15PM 23.3700 -81.5420 246° West 297 342 10,800  Level FlightAware
07:16PM 23.3540 -81.5840 247° West 297 342 10,800  Level FlightAware
07:19PM 23.2168 -81.8746 243° Southwest  Level FlightAware Approximate
07:20PM 23.1628 -81.9884 243° Southwest  Level FlightAware Approximate
07:21PM 23.1088 -82.1022 243° Southwest  Level FlightAware Approximate
07:22PM 23.0547 -82.2158 243° Southwest  Level FlightAware Approximate
07:23PM 23.0005 -82.3293 243° Southwest  Level FlightAware Approximate
07:24PM 22.9667 -82.4000 236° Southwest  Level FlightAware Approximate
07:25PM 22.9891 -82.4091 236° Southwest  Level Estimated
07:26PM 22.9891 -82.4091 236° Southwest  Level Estimated
07:27PM 22.9891 -82.4091 236° Southwest  Level Estimated
07:28PM 22.9891 -82.4091 236° Southwest  Level Estimated
07:29PM 22.9891 -82.4091 236° Southwest  Level Estimated
07:30PM 22.9891 -82.4091 236° Southwest  Level Estimated
07:31PM 22.9891 -82.4091 236° Southwest  Level Estimated
07:32PM 22.9891 -82.4091 236° Southwest  Level Estimated
07:33PM 22.9891 -82.4091 236° Southwest  Level Estimated
07:34PM 22.9891 -82.4091 236° Southwest  Level Estimated